Time;durP1;ratioP1;P1;durP2;ratioP2;P2;SDS_P1;SDS_P2;PMS_P1;PMS_P2;Temp;Humidity;BMP_temperature;BMP_pressure;BME280_temperature;BME280_humidity;BME280_pressure;Samples;Min_cycle;Max_cycle;Signal;HPM_P1;HPM_P2
2023/10/09 04:00:46;;;;;;;;;;;;;;;;;;5092276;23;20012;-75
2023/10/09 04:03:14;;;;;;;;;;;;;;;;;;5016958;28;19925;-75
2023/10/09 04:05:42;;;;;;;;;;;;;;;;;;5016869;28;19926;-75
2023/10/09 04:08:13;;;;;;;;;;;;;;;;;;5016340;28;20260;-75
2023/10/09 04:10:52;;;;;;;;;;;;;;;;;;5016706;28;19979;-75
2023/10/09 04:13:22;;;;;;;;;;;;;;;;;;5017113;28;20012;-75
2023/10/09 04:15:49;;;;;;;;;;;;;;;;;;5016605;28;19925;-74
2023/10/09 04:18:18;;;;;;;;;;;;;;;;;;5015742;28;19926;-75
2023/10/09 04:21:15;;;;;;;;;;;;;;;;;;5016507;28;20005;-75
2023/10/09 04:23:59;;;;;;;;;;;;;;;;;;5016170;28;19922;-74
2023/10/09 04:26:25;;;;;;;;;;;;;;;;;;5016108;28;19979;-74
2023/10/09 04:28:52;;;;;;;;;;;;;;;;;;5016294;28;19926;-74
2023/10/09 04:31:21;;;;;;;;;;;;;;;;;;5016480;28;19928;-75
2023/10/09 04:33:58;;;;;;;;;;;;;;;;;;5016459;28;19972;-70
2023/10/09 04:36:28;;;;;;;;;;;;;;;;;;5016547;28;19988;-70
2023/10/09 04:39:16;;;;;;;;;;;;;;;;;;5016105;28;19925;-70
2023/10/09 04:41:53;;;;;;;;;;;;;;;;;;5016389;28;19925;-70
2023/10/09 04:44:19;;;;;;;;;;;;;;;;;;5016062;28;20267;-71
2023/10/09 04:47:19;;;;;;;;;;;;;;;;;;5016259;28;19921;-71
2023/10/09 04:49:49;;;;;;;;;;;;;;;;;;5015514;28;19933;-71
2023/10/09 04:52:19;;;;;;;;;;;;;;;;;;5015971;28;19929;-71
2023/10/09 04:57:27;;;;;;;;;;;;;;;;;;5015773;28;19922;-73
2023/10/09 04:59:58;;;;;;;;;;;;;;;;;;5015581;28;19926;-70
2023/10/09 05:02:36;;;;;;;;;;;;;;;;;;5016178;28;19926;-70
2023/10/09 05:05:16;;;;;;;;;;;;;;;;;;5016013;28;19930;-73
2023/10/09 05:07:54;;;;;;;;;;;;;;;;;;5015677;28;19933;-71
2023/10/09 05:10:25;;;;;;;;;;;;;;;;;;5015824;28;19926;-68
2023/10/09 05:12:56;;;;;;;;;;;;;;;;;;5015760;28;19929;-68
2023/10/09 05:15:27;;;;;;;;;;;;;;;;;;5015662;28;20370;-68
2023/10/09 05:17:56;;;;;;;;;;;;;;;;;;5015442;28;19925;-68
2023/10/09 05:23:26;;;;;;;;;;;;;;;;;;5015268;28;19967;-68
2023/10/09 05:25:58;;;;;;;;;;;;;;;;;;5015465;28;19925;-68
2023/10/09 05:28:31;;;;;;;;;;;;;;;;;;5016530;28;20382;-68
2023/10/09 05:31:06;;;;;;;;;;;;;;;;;;5017245;28;20389;-68
2023/10/09 05:33:33;;;;;;;;;;;;;;;;;;5017353;28;19925;-68
2023/10/09 05:36:14;;;;;;;;;;;;;;;;;;5015564;28;19921;-68
2023/10/09 05:38:46;;;;;;;;;;;;;;;;;;5015103;28;20032;-68
2023/10/09 05:46:48;;;;;;;;;;;;;;;;;;5014788;28;19944;-68
2023/10/09 05:49:19;;;;;;;;;;;;;;;;;;5014865;28;20013;-68
2023/10/09 05:51:53;;;;;;;;;;;;;;;;;;5015989;28;20021;-68
2023/10/09 06:08:07;;;;;;;;;;;;;;;;;;5014338;28;19922;-68
2023/10/09 06:10:41;;;;;;;;;;;;;;;;;;5016192;28;19926;-68
2023/10/09 06:13:30;;;;;;;;;;;;;;;;;;5016828;28;19984;-68
2023/10/09 06:16:19;;;;;;;;;;;;;;;;;;5015584;28;19930;-68
2023/10/09 06:18:53;;;;;;;;;;;;;;;;;;5015932;28;19929;-68
2023/10/09 06:24:14;;;;;;;;;;;;;;;;;;5015230;28;19922;-68
2023/10/09 06:26:54;;;;;;;;;;;;;;;;;;5015448;28;20390;-68
2023/10/09 06:32:34;;;;;;;;;;;;;;;;;;5013064;28;20302;-68
2023/10/09 06:35:15;;;;;;;;;;;;;;;;;;5014908;28;20299;-68
2023/10/09 06:38:21;;;;;;;;;;;;;;;;;;5016352;28;20012;-68
2023/10/09 06:43:28;;;;;;;;;;;;;;;;;;4974678;28;20423;-69
2023/10/09 06:46:33;;;;;;;;;;;;;;;;;;5005046;28;19925;-69
2023/10/09 06:48:55;;;;;;;;;;;;;;;;;;5013671;28;20023;-69
2023/10/09 06:51:40;;;;;;;;;;;;;;;;;;5014060;28;20307;-69
2023/10/09 06:54:17;;;;;;;;;;;;;;;;;;5014123;28;19925;-69
2023/10/09 06:59:41;;;;;;;;;;;;;;;;;;5014085;28;19997;-69
2023/10/09 07:02:25;;;;;;;;;;;;;;;;;;5013747;28;19995;-69
2023/10/09 07:04:54;;;;;;;;;;;;;;;;;;5014286;28;19925;-69
2023/10/09 07:07:20;;;;;;;;;;;;;;;;;;5013780;28;19926;-69
2023/10/09 07:12:32;;;;;;;;;;;;;;;;;;5013701;28;19925;-69
2023/10/09 07:15:01;;;;;;;;;;;;;;;;;;5014265;28;19925;-69
2023/10/09 07:20:13;;;;;;;;;;;;;;;;;;5013839;28;19972;-69
2023/10/09 07:22:52;;;;;;;;;;;;;;;;;;5014169;28;19929;-67
2023/10/09 07:25:27;;;;;;;;;;;;;;;;;;5013954;28;20395;-67
2023/10/09 07:27:55;;;;;;;;;;;;;;;;;;5013983;28;20287;-69
2023/10/09 07:30:37;;;;;;;;;;;;;;;;;;5013811;28;20446;-69
2023/10/09 07:33:16;;;;;;;;;;;;;;;;;;5014044;28;19925;-68
2023/10/09 07:35:47;;;;;;;;;;;;;;;;;;5013965;28;19976;-69
2023/10/09 07:38:14;;;;;;;;;;;;;;;;;;5013883;28;19926;-69
2023/10/09 07:40:55;;;;;;;;;;;;;;;;;;5013848;28;19926;-69
2023/10/09 07:43:26;;;;;;;;;;;;;;;;;;5013859;28;19991;-69
2023/10/09 07:48:52;;;;;;;;;;;;;;;;;;5112500;27;20265;-69
2023/10/09 07:51:22;;;;;;;;;;;;;;;;;;5111888;28;19954;-69
2023/10/09 07:53:49;;;;;;;;;;;;;;;;;;5111966;28;19931;-69
2023/10/09 07:56:20;;;;;;;;;;;;;;;;;;5111830;28;19924;-69
2023/10/09 07:58:47;;;;;;;;;;;;;;;;;;5111721;28;19973;-69
2023/10/09 08:01:22;;;;;;;;;;;;;;;;;;5111576;28;19978;-69
2023/10/09 08:03:57;;;;;;;;;;;;;;;;;;5111642;28;19924;-69
2023/10/09 08:06:38;;;;;;;;;;;;;;;;;;5111513;28;19924;-69
2023/10/09 08:14:48;;;;;;;;;;;;;;;;;;5111461;28;20413;-68
2023/10/09 08:17:17;;;;;;;;;;;;;;;;;;5111322;28;19924;-69
2023/10/09 08:19:53;;;;;;;;;;;;;;;;;;5111212;28;19978;-69
2023/10/09 08:25:02;;;;;;;;;;;;;;;;;;5110965;28;19924;-69
2023/10/09 08:27:46;;;;;;;;;;;;;;;;;;5111094;28;19931;-69
2023/10/09 08:30:28;;;;;;;;;;;;;;;;;;5111234;28;19946;-68
2023/10/09 08:33:02;;;;;;;;;;;;;;;;;;5111217;28;19974;-68
2023/10/09 08:35:29;;;;;;;;;;;;;;;;;;5111500;28;20304;-68
2023/10/09 08:37:58;;;;;;;;;;;;;;;;;;5110946;28;19920;-68
2023/10/09 08:40:25;;;;;;;;;;;;;;;;;;5110888;28;19930;-68
2023/10/09 08:42:52;;;;;;;;;;;;;;;;;;5110898;28;19927;-68
2023/10/09 08:45:19;;;;;;;;;;;;;;;;;;5110852;28;19931;-68
2023/10/09 08:47:49;;;;;;;;;;;;;;;;;;5122327;28;20381;-68
2023/10/09 08:50:16;;;;;;;;;;;;;;;;;;5131099;28;19923;-69
2023/10/09 08:52:43;;;;;;;;;;;;;;;;;;5131174;28;20033;-69
2023/10/09 10:58:47;;;;;;;;;;;;;;;;;;4973973;28;19953;-69
2023/10/09 11:01:13;;;;;;;;;;;;;;;;;;4975789;28;19977;-69
2023/10/09 11:06:21;;;;;;;;;;;;;;;;;;4975960;28;19972;-70
2023/10/09 11:08:54;;;;;;;;;;;;;;;;;;4975671;28;20322;-70
2023/10/09 11:11:21;;;;;;;;;;;;;;;;;;4976516;28;19930;-70
2023/10/09 11:13:55;;;;;;;;;;;;;;;;;;4975596;28;19930;-70
2023/10/09 11:16:32;;;;;;;;;;;;;;;;;;4975390;28;19973;-70
2023/10/09 11:19:12;;;;;;;;;;;;;;;;;;4975669;28;19926;-69
2023/10/09 11:21:41;;;;;;;;;;;;;;;;;;4975074;28;19926;-70
2023/10/09 11:24:24;;;;;;;;;;;;;;;;;;4975754;28;19976;-70
2023/10/09 11:26:55;;;;;;;;;;;;;;;;;;4975643;28;20439;-70
2023/10/09 11:29:29;;;;;;;;;;;;;;;;;;4975192;28;20379;-70
2023/10/09 11:31:57;;;;;;;;;;;;;;;;;;4975380;28;19945;-70
2023/10/09 11:34:29;;;;;;;;;;;;;;;;;;4975027;28;20268;-67
2023/10/09 11:36:56;;;;;;;;;;;;;;;;;;4975373;28;20008;-67
2023/10/09 11:39:23;;;;;;;;;;;;;;;;;;4975152;28;19965;-69
2023/10/09 11:41:55;;;;;;;;;;;;;;;;;;4975221;28;19965;-69
2023/10/09 11:44:25;;;;;;;;;;;;;;;;;;4975085;28;20387;-69
2023/10/09 11:46:51;;;;;;;;;;;;;;;;;;4975012;28;19930;-69
2023/10/09 11:49:34;;;;;;;;;;;;;;;;;;4975296;28;20009;-69
2023/10/09 11:54:45;;;;;;;;;;;;;;;;;;4975530;28;19929;-69
2023/10/09 11:57:12;;;;;;;;;;;;;;;;;;4975133;28;19949;-69
2023/10/09 11:59:40;;;;;;;;;;;;;;;;;;4980373;28;19930;-69
2023/10/09 12:02:11;;;;;;;;;;;;;;;;;;4976817;28;20028;-69
2023/10/09 12:04:41;;;;;;;;;;;;;;;;;;4977207;28;19926;-69
2023/10/09 12:07:10;;;;;;;;;;;;;;;;;;4976694;28;19934;-70
2023/10/09 12:09:37;;;;;;;;;;;;;;;;;;4980805;28;19949;-70
2023/10/09 12:12:04;;;;;;;;;;;;;;;;;;4975722;28;19927;-70
2023/10/09 12:14:33;;;;;;;;;;;;;;;;;;4975143;28;19933;-70
2023/10/09 12:17:05;;;;;;;;;;;;;;;;;;4975092;28;19973;-70
2023/10/09 12:19:32;;;;;;;;;;;;;;;;;;4974867;28;20070;-70
2023/10/09 12:22:00;;;;;;;;;;;;;;;;;;4974868;28;19926;-70
2023/10/09 12:24:29;;;;;;;;;;;;;;;;;;4974824;28;19933;-70
2023/10/09 12:26:55;;;;;;;;;;;;;;;;;;4974727;28;19980;-70
2023/10/09 12:29:23;;;;;;;;;;;;;;;;;;4974765;28;19930;-70
2023/10/09 12:31:57;;;;;;;;;;;;;;;;;;4976097;28;19934;-69
2023/10/09 12:34:26;;;;;;;;;;;;;;;;;;4978416;28;19926;-69
2023/10/09 12:36:53;;;;;;;;;;;;;;;;;;4979425;28;19926;-70
2023/10/09 12:39:21;;;;;;;;;;;;;;;;;;4979500;28;19953;-71
2023/10/09 12:41:48;;;;;;;;;;;;;;;;;;4978549;28;20299;-71
2023/10/09 12:44:15;;;;;;;;;;;;;;;;;;4978210;28;19932;-71
2023/10/09 12:46:51;;;;;;;;;;;;;;;;;;4977831;28;20403;-71
2023/10/09 12:49:18;;;;;;;;;;;;;;;;;;4978087;28;19926;-71
2023/10/09 12:51:45;;;;;;;;;;;;;;;;;;4978097;28;20002;-70
2023/10/09 12:54:14;;;;;;;;;;;;;;;;;;4978091;28;20291;-71
2023/10/09 12:56:41;;;;;;;;;;;;;;;;;;4977692;28;19933;-70
2023/10/09 12:59:14;;;;;;;;;;;;;;;;;;4977575;28;19926;-70
2023/10/09 13:01:43;;;;;;;;;;;;;;;;;;4978016;28;19926;-70
2023/10/09 13:04:11;;;;;;;;;;;;;;;;;;4977860;28;19930;-70
2023/10/09 13:06:43;;;;;;;;;;;;;;;;;;4977679;28;19930;-70
2023/10/09 13:09:10;;;;;;;;;;;;;;;;;;4977702;28;20041;-70
2023/10/09 13:11:38;;;;;;;;;;;;;;;;;;4977740;28;19930;-72
2023/10/09 13:14:11;;;;;;;;;;;;;;;;;;4977624;28;19926;-72
2023/10/09 13:16:38;;;;;;;;;;;;;;;;;;4977380;28;20411;-72
2023/10/09 13:19:09;;;;;;;;;;;;;;;;;;4977555;28;19926;-70
2023/10/09 13:21:38;;;;;;;;;;;;;;;;;;4977498;28;20025;-70
2023/10/09 13:24:05;;;;;;;;;;;;;;;;;;4977397;28;19981;-70
2023/10/09 13:26:34;;;;;;;;;;;;;;;;;;4977040;28;20303;-70
2023/10/09 13:29:02;;;;;;;;;;;;;;;;;;4977051;28;19989;-71
2023/10/09 13:31:31;;;;;;;;;;;;;;;;;;4977180;28;20410;-71
2023/10/09 13:33:59;;;;;;;;;;;;;;;;;;4977599;28;19926;-71
2023/10/09 13:36:31;;;;;;;;;;;;;;;;;;4977529;28;19926;-70
2023/10/09 13:38:57;;;;;;;;;;;;;;;;;;4977487;28;19926;-71
2023/10/09 13:41:29;;;;;;;;;;;;;;;;;;4977380;28;19926;-72
2023/10/09 13:43:56;;;;;;;;;;;;;;;;;;4977583;28;19927;-73
2023/10/09 13:46:24;;;;;;;;;;;;;;;;;;4977449;28;20329;-73
2023/10/09 13:48:52;;;;;;;;;;;;;;;;;;4977446;28;19926;-73
2023/10/09 13:51:24;;;;;;;;;;;;;;;;;;4977659;28;20045;-73
2023/10/09 13:53:51;;;;;;;;;;;;;;;;;;4977230;28;20394;-73
2023/10/09 13:56:19;;;;;;;;;;;;;;;;;;4977371;28;19932;-74
2023/10/09 13:58:46;;;;;;;;;;;;;;;;;;4977175;28;19927;-73
2023/10/09 14:01:20;;;;;;;;;;;;;;;;;;4977862;28;19930;-73
2023/10/09 14:03:49;;;;;;;;;;;;;;;;;;4977205;28;20416;-73
2023/10/09 14:06:19;;;;;;;;;;;;;;;;;;4976986;28;20400;-72
2023/10/09 14:08:46;;;;;;;;;;;;;;;;;;4977866;28;19926;-73
2023/10/09 14:11:14;;;;;;;;;;;;;;;;;;4978373;28;19937;-72
2023/10/09 14:13:41;;;;;;;;;;;;;;;;;;4978533;28;19969;-72
2023/10/09 14:16:23;;;;;;;;;;;;;;;;;;4978958;28;19926;-72
2023/10/09 14:18:53;;;;;;;;;;;;;;;;;;4978881;28;19933;-73
2023/10/09 14:21:20;;;;;;;;;;;;;;;;;;4978848;28;19992;-74
2023/10/09 14:23:48;;;;;;;;;;;;;;;;;;4977412;28;20379;-74
2023/10/09 14:26:15;;;;;;;;;;;;;;;;;;4977551;28;19933;-71
2023/10/09 14:28:42;;;;;;;;;;;;;;;;;;4977191;28;19930;-72
2023/10/09 14:31:12;;;;;;;;;;;;;;;;;;4977230;28;20388;-74
2023/10/09 14:33:40;;;;;;;;;;;;;;;;;;4977520;28;19934;-73
2023/10/09 14:36:07;;;;;;;;;;;;;;;;;;4977570;28;19926;-72
2023/10/09 14:38:38;;;;;;;;;;;;;;;;;;4977170;28;19953;-73
2023/10/09 14:41:07;;;;;;;;;;;;;;;;;;4977335;28;20002;-72
2023/10/09 14:43:35;;;;;;;;;;;;;;;;;;4977190;28;19926;-73
2023/10/09 14:46:04;;;;;;;;;;;;;;;;;;4977058;28;19926;-74
2023/10/09 14:48:37;;;;;;;;;;;;;;;;;;4976389;28;20002;-73
2023/10/09 14:51:06;;;;;;;;;;;;;;;;;;4976870;28;19932;-72
2023/10/09 14:53:34;;;;;;;;;;;;;;;;;;4975982;28;19936;-71
2023/10/09 14:56:01;;;;;;;;;;;;;;;;;;4975388;28;19952;-71
2023/10/09 14:58:29;;;;;;;;;;;;;;;;;;4975295;28;19926;-71
2023/10/09 15:00:56;;;;;;;;;;;;;;;;;;4975590;28;20299;-71
2023/10/09 15:03:23;;;;;;;;;;;;;;;;;;4975707;28;19937;-71
2023/10/09 15:05:49;;;;;;;;;;;;;;;;;;4975660;28;19926;-71
2023/10/09 15:08:17;;;;;;;;;;;;;;;;;;4975593;28;19927;-70
2023/10/09 15:10:44;;;;;;;;;;;;;;;;;;4975528;28;19930;-71
2023/10/09 15:13:13;;;;;;;;;;;;;;;;;;4975647;28;19933;-71
2023/10/09 15:15:40;;;;;;;;;;;;;;;;;;4975487;28;19927;-71
2023/10/09 15:18:06;;;;;;;;;;;;;;;;;;4975129;28;19926;-71
2023/10/09 15:20:34;;;;;;;;;;;;;;;;;;4976003;28;19930;-72
2023/10/09 15:23:01;;;;;;;;;;;;;;;;;;4975502;28;19926;-72
2023/10/09 15:25:28;;;;;;;;;;;;;;;;;;4975812;28;19926;-72
2023/10/09 15:27:56;;;;;;;;;;;;;;;;;;4975204;28;19926;-72
2023/10/09 15:30:23;;;;;;;;;;;;;;;;;;4975010;28;20298;-73
2023/10/09 15:32:50;;;;;;;;;;;;;;;;;;4975305;28;19933;-71
2023/10/09 15:35:18;;;;;;;;;;;;;;;;;;4975065;28;19926;-73
2023/10/09 15:37:45;;;;;;;;;;;;;;;;;;4975218;28;19930;-73
2023/10/09 15:40:15;;;;;;;;;;;;;;;;;;4975034;28;20281;-73
2023/10/09 15:42:42;;;;;;;;;;;;;;;;;;4974829;28;20407;-73
2023/10/09 15:45:09;;;;;;;;;;;;;;;;;;4975012;28;20442;-72
2023/10/09 15:47:36;;;;;;;;;;;;;;;;;;4975239;28;19926;-73
2023/10/09 15:50:04;;;;;;;;;;;;;;;;;;4975104;28;19926;-73
2023/10/09 15:52:30;;;;;;;;;;;;;;;;;;4975156;28;19973;-72
2023/10/09 15:54:57;;;;;;;;;;;;;;;;;;4976143;28;19949;-72
2023/10/09 15:57:24;;;;;;;;;;;;;;;;;;4975114;28;19937;-71
2023/10/09 15:59:51;;;;;;;;;;;;;;;;;;4975410;28;19926;-71
2023/10/09 16:02:18;;;;;;;;;;;;;;;;;;4975093;28;19933;-70
2023/10/09 16:04:45;;;;;;;;;;;;;;;;;;4975534;28;19949;-71
2023/10/09 16:07:13;;;;;;;;;;;;;;;;;;4974975;28;19934;-71
2023/10/09 16:09:40;;;;;;;;;;;;;;;;;;4977084;28;19969;-70
2023/10/09 16:12:07;;;;;;;;;;;;;;;;;;4978998;28;19988;-70
2023/10/09 16:14:34;;;;;;;;;;;;;;;;;;4978582;28;20388;-70
2023/10/09 16:17:01;;;;;;;;;;;;;;;;;;4978850;28;19977;-71
2023/10/09 16:19:32;;;;;;;;;;;;;;;;;;4978767;28;20012;-70
2023/10/09 16:22:03;;;;;;;;;;;;;;;;;;4978923;28;20029;-71
2023/10/09 16:24:32;;;;;;;;;;;;;;;;;;4979341;28;19926;-70
2023/10/09 16:26:59;;;;;;;;;;;;;;;;;;4978277;28;20372;-70
2023/10/09 16:29:27;;;;;;;;;;;;;;;;;;4978719;28;19933;-70
2023/10/09 16:31:55;;;;;;;;;;;;;;;;;;4978821;28;19977;-70
2023/10/09 16:34:25;;;;;;;;;;;;;;;;;;4979019;28;19973;-72
2023/10/09 16:36:52;;;;;;;;;;;;;;;;;;4978708;28;19926;-70
2023/10/09 16:39:22;;;;;;;;;;;;;;;;;;4978689;28;19949;-70
2023/10/09 16:41:49;;;;;;;;;;;;;;;;;;4978649;28;19930;-70
2023/10/09 16:44:17;;;;;;;;;;;;;;;;;;4978276;28;20350;-70
2023/10/09 16:46:44;;;;;;;;;;;;;;;;;;4978575;28;20450;-71
2023/10/09 16:49:13;;;;;;;;;;;;;;;;;;4979208;28;19941;-70
2023/10/09 16:51:42;;;;;;;;;;;;;;;;;;4979461;28;19926;-69
2023/10/09 16:54:14;;;;;;;;;;;;;;;;;;4979880;28;19930;-69
2023/10/09 16:56:42;;;;;;;;;;;;;;;;;;4979141;28;19932;-69
2023/10/09 16:59:13;;;;;;;;;;;;;;;;;;4978557;28;19926;-69
2023/10/09 17:01:40;;;;;;;;;;;;;;;;;;4978366;28;19930;-69
2023/10/09 17:04:11;;;;;;;;;;;;;;;;;;4977892;28;19933;-69
2023/10/09 17:06:38;;;;;;;;;;;;;;;;;;4978176;28;20025;-72
2023/10/09 17:09:06;;;;;;;;;;;;;;;;;;4978494;28;19926;-72
2023/10/09 17:11:36;;;;;;;;;;;;;;;;;;4977908;28;20291;-72
2023/10/09 17:14:05;;;;;;;;;;;;;;;;;;4978202;28;19933;-72
2023/10/09 17:16:32;;;;;;;;;;;;;;;;;;4977919;28;19926;-73
2023/10/09 17:19:00;;;;;;;;;;;;;;;;;;4977514;28;20380;-73
2023/10/09 17:21:29;;;;;;;;;;;;;;;;;;4977577;28;19926;-72
2023/10/09 17:23:58;;;;;;;;;;;;;;;;;;4977816;28;19926;-72
2023/10/09 17:26:25;;;;;;;;;;;;;;;;;;4977828;28;19936;-73
2023/10/09 17:28:53;;;;;;;;;;;;;;;;;;4978051;28;19933;-72
2023/10/09 17:31:20;;;;;;;;;;;;;;;;;;4978064;28;19926;-71
2023/10/09 17:33:47;;;;;;;;;;;;;;;;;;4978515;28;19926;-70
2023/10/09 17:36:16;;;;;;;;;;;;;;;;;;4977661;28;19926;-71
2023/10/09 17:38:43;;;;;;;;;;;;;;;;;;4977755;28;19976;-70
2023/10/09 17:41:10;;;;;;;;;;;;;;;;;;4977656;28;20383;-71
2023/10/09 17:43:37;;;;;;;;;;;;;;;;;;4977795;28;19926;-70
2023/10/09 17:46:04;;;;;;;;;;;;;;;;;;4977195;28;19926;-70
2023/10/09 17:48:33;;;;;;;;;;;;;;;;;;4977901;28;19975;-71
2023/10/09 17:51:00;;;;;;;;;;;;;;;;;;4980092;28;20380;-70
2023/10/09 17:53:29;;;;;;;;;;;;;;;;;;4979416;28;20298;-70
2023/10/09 17:55:56;;;;;;;;;;;;;;;;;;4979509;28;19930;-71
2023/10/09 17:58:26;;;;;;;;;;;;;;;;;;4977709;28;19926;-73
2023/10/09 18:00:52;;;;;;;;;;;;;;;;;;4978343;28;19958;-73
2023/10/09 18:03:19;;;;;;;;;;;;;;;;;;4977773;28;19930;-73
2023/10/09 18:05:46;;;;;;;;;;;;;;;;;;4977549;28;20005;-74
2023/10/09 18:08:14;;;;;;;;;;;;;;;;;;4976820;28;20440;-74
2023/10/09 18:10:43;;;;;;;;;;;;;;;;;;4977767;28;20361;-73
2023/10/09 18:13:10;;;;;;;;;;;;;;;;;;4977413;28;19953;-74
2023/10/09 18:15:37;;;;;;;;;;;;;;;;;;4977056;28;19926;-74
2023/10/09 18:18:06;;;;;;;;;;;;;;;;;;4976817;28;19926;-73
2023/10/09 18:20:32;;;;;;;;;;;;;;;;;;4977073;28;20040;-74
2023/10/09 18:23:00;;;;;;;;;;;;;;;;;;4977458;28;19969;-73
2023/10/09 18:25:27;;;;;;;;;;;;;;;;;;4976780;28;19926;-74
2023/10/09 18:27:56;;;;;;;;;;;;;;;;;;4976730;28;19927;-73
2023/10/09 18:30:26;;;;;;;;;;;;;;;;;;4976689;28;19926;-74
2023/10/09 18:32:56;;;;;;;;;;;;;;;;;;4975819;28;20028;-74
2023/10/09 18:35:24;;;;;;;;;;;;;;;;;;4976487;28;19977;-74
2023/10/09 18:37:56;;;;;;;;;;;;;;;;;;4976425;28;19926;-74
2023/10/09 18:40:28;;;;;;;;;;;;;;;;;;4976553;28;19926;-73
2023/10/09 18:42:55;;;;;;;;;;;;;;;;;;4976347;28;19933;-75
2023/10/09 18:45:22;;;;;;;;;;;;;;;;;;4977497;28;19933;-74
2023/10/09 18:47:49;;;;;;;;;;;;;;;;;;4976628;28;19926;-74
2023/10/09 18:50:17;;;;;;;;;;;;;;;;;;4976032;28;19937;-74
2023/10/09 18:52:44;;;;;;;;;;;;;;;;;;4976412;28;19926;-74
2023/10/09 18:55:12;;;;;;;;;;;;;;;;;;4976342;28;20264;-72
2023/10/09 18:57:39;;;;;;;;;;;;;;;;;;4976010;28;19932;-73
2023/10/09 19:00:09;;;;;;;;;;;;;;;;;;4976145;28;19930;-73
2023/10/09 19:02:37;;;;;;;;;;;;;;;;;;4976703;28;20391;-75
2023/10/09 19:05:07;;;;;;;;;;;;;;;;;;4977446;28;20024;-74
2023/10/09 19:07:35;;;;;;;;;;;;;;;;;;4977293;28;20451;-73
2023/10/09 19:10:02;;;;;;;;;;;;;;;;;;4977090;28;20376;-75
2023/10/09 19:12:29;;;;;;;;;;;;;;;;;;4976052;28;19926;-74
2023/10/09 19:14:56;;;;;;;;;;;;;;;;;;4976128;28;19930;-74
2023/10/09 19:17:24;;;;;;;;;;;;;;;;;;4976655;28;19933;-74
2023/10/09 19:19:51;;;;;;;;;;;;;;;;;;4975820;28;20399;-75
2023/10/09 19:22:17;;;;;;;;;;;;;;;;;;4975929;28;19926;-75
2023/10/09 19:24:45;;;;;;;;;;;;;;;;;;4975568;28;19928;-74
2023/10/09 19:27:13;;;;;;;;;;;;;;;;;;4975688;28;19965;-75
2023/10/09 19:29:40;;;;;;;;;;;;;;;;;;4975838;28;19969;-75
2023/10/09 19:32:07;;;;;;;;;;;;;;;;;;4975868;28;19926;-75
2023/10/09 19:34:34;;;;;;;;;;;;;;;;;;4976721;28;19981;-75
2023/10/09 19:37:01;;;;;;;;;;;;;;;;;;4975912;28;19926;-75
2023/10/09 19:39:31;;;;;;;;;;;;;;;;;;4975715;28;20303;-75
2023/10/09 19:41:58;;;;;;;;;;;;;;;;;;4976017;28;19926;-75
2023/10/09 19:44:26;;;;;;;;;;;;;;;;;;4975968;28;19926;-75
2023/10/09 19:46:54;;;;;;;;;;;;;;;;;;4975668;28;20380;-75
2023/10/09 19:49:22;;;;;;;;;;;;;;;;;;4975042;28;20372;-74
2023/10/09 19:51:49;;;;;;;;;;;;;;;;;;4975416;28;19926;-74
2023/10/09 19:54:17;;;;;;;;;;;;;;;;;;4975475;28;19938;-73
2023/10/09 19:56:45;;;;;;;;;;;;;;;;;;4975870;28;19934;-74
2023/10/09 19:59:12;;;;;;;;;;;;;;;;;;4975724;28;19960;-74
2023/10/09 20:01:39;;;;;;;;;;;;;;;;;;4975866;28;19926;-74
2023/10/09 20:04:06;;;;;;;;;;;;;;;;;;4976802;28;19937;-74
2023/10/09 20:06:35;;;;;;;;;;;;;;;;;;4976636;28;20295;-75
2023/10/09 20:09:08;;;;;;;;;;;;;;;;;;4975639;28;19997;-74
2023/10/09 20:11:36;;;;;;;;;;;;;;;;;;4975369;28;19933;-74
2023/10/09 20:14:02;;;;;;;;;;;;;;;;;;4974918;28;20300;-75
2023/10/09 20:16:36;;;;;;;;;;;;;;;;;;4975025;28;19933;-74
2023/10/09 20:19:08;;;;;;;;;;;;;;;;;;5032941;23;20013;-73
2023/10/09 20:21:35;;;;;;;;;;;;;;;;;;5014542;28;19925;-76
2023/10/09 20:24:01;;;;;;;;;;;;;;;;;;5014019;28;20306;-74
2023/10/09 20:26:28;;;;;;;;;;;;;;;;;;5014514;28;19925;-74
2023/10/09 20:28:56;;;;;;;;;;;;;;;;;;5014826;28;20020;-74
2023/10/09 20:31:23;;;;;;;;;;;;;;;;;;5014650;28;19926;-73
2023/10/09 20:33:57;;;;;;;;;;;;;;;;;;5014085;28;20325;-73
2023/10/09 20:36:27;;;;;;;;;;;;;;;;;;5013561;28;20016;-73
2023/10/09 20:38:54;;;;;;;;;;;;;;;;;;5013714;28;20337;-73
2023/10/09 20:41:22;;;;;;;;;;;;;;;;;;5013768;28;19925;-73
2023/10/09 20:43:49;;;;;;;;;;;;;;;;;;5013650;28;19929;-74
2023/10/09 20:46:16;;;;;;;;;;;;;;;;;;5013678;28;20306;-74
2023/10/09 20:48:44;;;;;;;;;;;;;;;;;;5013473;28;19932;-74
2023/10/09 20:51:11;;;;;;;;;;;;;;;;;;5013413;28;19956;-74
2023/10/09 20:53:38;;;;;;;;;;;;;;;;;;5013649;28;19937;-74
2023/10/09 20:56:06;;;;;;;;;;;;;;;;;;5016213;28;19932;-74
2023/10/09 20:58:33;;;;;;;;;;;;;;;;;;5017000;28;19933;-74
2023/10/09 21:01:00;;;;;;;;;;;;;;;;;;5016688;28;19925;-74
2023/10/09 21:03:27;;;;;;;;;;;;;;;;;;5019982;28;19933;-75
2023/10/09 21:05:55;;;;;;;;;;;;;;;;;;5023536;28;19926;-74
2023/10/09 21:08:22;;;;;;;;;;;;;;;;;;5022849;28;19933;-75
2023/10/09 21:10:49;;;;;;;;;;;;;;;;;;5022409;28;19929;-73
2023/10/09 21:13:16;;;;;;;;;;;;;;;;;;5022498;28;19925;-75
2023/10/09 21:15:45;;;;;;;;;;;;;;;;;;5023771;28;19932;-76
2023/10/09 21:18:12;;;;;;;;;;;;;;;;;;5023356;28;19932;-73
2023/10/09 21:20:39;;;;;;;;;;;;;;;;;;5024543;28;19936;-73
2023/10/09 21:23:06;;;;;;;;;;;;;;;;;;5022453;28;19929;-73
2023/10/09 21:25:33;;;;;;;;;;;;;;;;;;5025788;28;20264;-73
2023/10/09 21:28:00;;;;;;;;;;;;;;;;;;5026453;28;19988;-73
2023/10/09 21:30:27;;;;;;;;;;;;;;;;;;5026519;28;19925;-71
2023/10/09 21:32:54;;;;;;;;;;;;;;;;;;5022695;28;19926;-71
2023/10/09 21:35:21;;;;;;;;;;;;;;;;;;5023571;28;19926;-72
2023/10/09 21:37:48;;;;;;;;;;;;;;;;;;5022546;28;19929;-72
2023/10/09 21:40:22;;;;;;;;;;;;;;;;;;5022107;28;19925;-72
2023/10/09 21:42:51;;;;;;;;;;;;;;;;;;5023862;28;19932;-72
2023/10/09 21:45:18;;;;;;;;;;;;;;;;;;5018120;28;20302;-72
2023/10/09 21:47:46;;;;;;;;;;;;;;;;;;5018774;28;19929;-72
2023/10/09 21:50:13;;;;;;;;;;;;;;;;;;5019282;28;19926;-72
2023/10/09 21:52:40;;;;;;;;;;;;;;;;;;5017199;28;19925;-72
2023/10/09 21:55:08;;;;;;;;;;;;;;;;;;5016624;28;19925;-72
2023/10/09 21:57:35;;;;;;;;;;;;;;;;;;5017696;28;19933;-72
2023/10/09 22:00:09;;;;;;;;;;;;;;;;;;5019367;28;19926;-72
2023/10/09 22:02:37;;;;;;;;;;;;;;;;;;5019309;28;20012;-72
2023/10/09 22:05:09;;;;;;;;;;;;;;;;;;5018723;28;19933;-72
2023/10/09 22:07:36;;;;;;;;;;;;;;;;;;5016600;28;19961;-71
